sensor_id;sensor_type;location;lat;lon;timestamp;P1;durP1;ratioP1;P2;durP2;ratioP2
5085;SDS011;4715;51.660;7.082;2023-02-15T00:00:48;31.50;;;17.80;;
5085;SDS011;4715;51.660;7.082;2023-02-15T00:03:14;26.70;;;16.30;;
5085;SDS011;4715;51.660;7.082;2023-02-15T00:05:38;25.70;;;16.43;;
5085;SDS011;4715;51.660;7.082;2023-02-15T00:08:00;26.67;;;14.00;;
5085;SDS011;4715;51.660;7.082;2023-02-15T00:10:23;27.77;;;16.30;;
5085;SDS011;4715;51.660;7.082;2023-02-15T00:12:48;22.93;;;15.20;;
5085;SDS011;4715;51.660;7.082;2023-02-15T00:15:10;24.47;;;15.50;;
5085;SDS011;4715;51.660;7.082;2023-02-15T00:17:33;22.93;;;15.13;;
5085;SDS011;4715;51.660;7.082;2023-02-15T00:19:55;26.47;;;15.83;;
5085;SDS011;4715;51.660;7.082;2023-02-15T00:22:19;23.50;;;14.37;;
5085;SDS011;4715;51.660;7.082;2023-02-15T00:24:41;27.93;;;16.30;;
5085;SDS011;4715;51.660;7.082;2023-02-15T00:27:04;26.67;;;16.33;;
5085;SDS011;4715;51.660;7.082;2023-02-15T00:29:26;23.13;;;14.67;;
5085;SDS011;4715;51.660;7.082;2023-02-15T00:31:48;25.37;;;16.83;;
5085;SDS011;4715;51.660;7.082;2023-02-15T00:34:13;24.70;;;15.10;;
5085;SDS011;4715;51.660;7.082;2023-02-15T00:36:37;18.90;;;13.37;;
5085;SDS011;4715;51.660;7.082;2023-02-15T00:39:01;25.73;;;14.23;;
5085;SDS011;4715;51.660;7.082;2023-02-15T00:41:27;16.67;;;12.87;;
5085;SDS011;4715;51.660;7.082;2023-02-15T00:43:51;21.00;;;12.37;;
5085;SDS011;4715;51.660;7.082;2023-02-15T00:46:13;20.90;;;13.80;;
5085;SDS011;4715;51.660;7.082;2023-02-15T00:48:35;16.10;;;12.13;;
5085;SDS011;4715;51.660;7.082;2023-02-15T00:51:01;17.40;;;13.70;;
5085;SDS011;4715;51.660;7.082;2023-02-15T00:53:24;18.37;;;12.80;;
5085;SDS011;4715;51.660;7.082;2023-02-15T00:55:49;17.60;;;11.13;;
5085;SDS011;4715;51.660;7.082;2023-02-15T00:58:11;16.30;;;11.43;;
5085;SDS011;4715;51.660;7.082;2023-02-15T01:00:35;14.80;;;11.00;;
5085;SDS011;4715;51.660;7.082;2023-02-15T01:02:57;16.20;;;9.87;;
5085;SDS011;4715;51.660;7.082;2023-02-15T01:05:20;22.43;;;12.00;;
5085;SDS011;4715;51.660;7.082;2023-02-15T01:07:42;20.77;;;12.40;;
5085;SDS011;4715;51.660;7.082;2023-02-15T01:10:04;14.53;;;10.90;;
5085;SDS011;4715;51.660;7.082;2023-02-15T01:12:32;14.43;;;11.70;;
5085;SDS011;4715;51.660;7.082;2023-02-15T01:14:54;17.27;;;11.53;;
5085;SDS011;4715;51.660;7.082;2023-02-15T01:17:20;16.47;;;11.03;;
5085;SDS011;4715;51.660;7.082;2023-02-15T01:19:44;17.40;;;11.23;;
5085;SDS011;4715;51.660;7.082;2023-02-15T01:22:14;14.07;;;10.07;;
5085;SDS011;4715;51.660;7.082;2023-02-15T01:24:36;15.37;;;10.80;;
5085;SDS011;4715;51.660;7.082;2023-02-15T01:26:59;16.73;;;11.17;;
5085;SDS011;4715;51.660;7.082;2023-02-15T01:29:21;17.20;;;11.40;;
5085;SDS011;4715;51.660;7.082;2023-02-15T01:31:43;12.80;;;9.80;;
5085;SDS011;4715;51.660;7.082;2023-02-15T01:34:06;18.50;;;11.17;;
5085;SDS011;4715;51.660;7.082;2023-02-15T01:36:28;15.50;;;12.37;;
5085;SDS011;4715;51.660;7.082;2023-02-15T01:38:50;15.87;;;10.67;;
5085;SDS011;4715;51.660;7.082;2023-02-15T01:41:12;14.77;;;9.87;;
5085;SDS011;4715;51.660;7.082;2023-02-15T01:43:48;14.50;;;10.23;;
5085;SDS011;4715;51.660;7.082;2023-02-15T01:46:11;18.60;;;11.17;;
5085;SDS011;4715;51.660;7.082;2023-02-15T01:48:35;14.77;;;10.50;;
5085;SDS011;4715;51.660;7.082;2023-02-15T01:51:06;14.43;;;9.83;;
5085;SDS011;4715;51.660;7.082;2023-02-15T01:53:28;15.57;;;11.47;;
5085;SDS011;4715;51.660;7.082;2023-02-15T01:55:57;15.33;;;10.60;;
5085;SDS011;4715;51.660;7.082;2023-02-15T01:58:20;15.60;;;10.57;;
5085;SDS011;4715;51.660;7.082;2023-02-15T02:00:43;20.80;;;11.93;;
5085;SDS011;4715;51.660;7.082;2023-02-15T02:03:06;14.93;;;11.57;;
5085;SDS011;4715;51.660;7.082;2023-02-15T02:05:28;16.90;;;11.60;;
5085;SDS011;4715;51.660;7.082;2023-02-15T02:07:52;16.17;;;12.23;;
5085;SDS011;4715;51.660;7.082;2023-02-15T02:10:18;18.10;;;12.13;;
5085;SDS011;4715;51.660;7.082;2023-02-15T02:12:42;18.70;;;11.67;;
5085;SDS011;4715;51.660;7.082;2023-02-15T02:15:07;15.07;;;10.97;;
5085;SDS011;4715;51.660;7.082;2023-02-15T02:17:31;16.30;;;10.80;;
5085;SDS011;4715;51.660;7.082;2023-02-15T02:20:20;16.10;;;10.40;;
5085;SDS011;4715;51.660;7.082;2023-02-15T02:29:03;18.07;;;12.33;;
5085;SDS011;4715;51.660;7.082;2023-02-15T02:31:57;24.07;;;14.07;;
5085;SDS011;4715;51.660;7.082;2023-02-15T02:34:42;27.43;;;13.83;;
5085;SDS011;4715;51.660;7.082;2023-02-15T02:37:12;20.13;;;12.83;;
5085;SDS011;4715;51.660;7.082;2023-02-15T02:39:42;23.10;;;14.27;;
5085;SDS011;4715;51.660;7.082;2023-02-15T02:42:17;22.87;;;12.97;;
5085;SDS011;4715;51.660;7.082;2023-02-15T02:44:46;19.83;;;12.90;;
5085;SDS011;4715;51.660;7.082;2023-02-15T02:47:11;23.47;;;13.00;;
5085;SDS011;4715;51.660;7.082;2023-02-15T02:49:42;19.53;;;12.57;;
5085;SDS011;4715;51.660;7.082;2023-02-15T02:52:05;23.10;;;13.77;;
5085;SDS011;4715;51.660;7.082;2023-02-15T02:54:47;20.03;;;13.80;;
5085;SDS011;4715;51.660;7.082;2023-02-15T02:57:09;18.77;;;12.07;;
5085;SDS011;4715;51.660;7.082;2023-02-15T02:59:32;21.20;;;12.93;;
5085;SDS011;4715;51.660;7.082;2023-02-15T03:01:58;15.43;;;10.93;;
5085;SDS011;4715;51.660;7.082;2023-02-15T03:04:28;19.10;;;13.13;;
5085;SDS011;4715;51.660;7.082;2023-02-15T03:06:55;19.13;;;12.70;;
5085;SDS011;4715;51.660;7.082;2023-02-15T03:09:22;18.23;;;12.47;;
5085;SDS011;4715;51.660;7.082;2023-02-15T03:12:01;19.77;;;12.30;;
5085;SDS011;4715;51.660;7.082;2023-02-15T03:14:24;16.30;;;10.70;;
5085;SDS011;4715;51.660;7.082;2023-02-15T03:16:47;19.03;;;13.07;;
5085;SDS011;4715;51.660;7.082;2023-02-15T03:19:12;18.73;;;12.50;;
5085;SDS011;4715;51.660;7.082;2023-02-15T03:21:37;17.40;;;12.40;;
5085;SDS011;4715;51.660;7.082;2023-02-15T03:24:06;16.90;;;11.10;;
5085;SDS011;4715;51.660;7.082;2023-02-15T03:26:32;17.40;;;11.50;;
5085;SDS011;4715;51.660;7.082;2023-02-15T03:28:57;18.93;;;12.50;;
5085;SDS011;4715;51.660;7.082;2023-02-15T03:31:20;17.10;;;12.10;;
5085;SDS011;4715;51.660;7.082;2023-02-15T03:33:46;17.77;;;11.70;;
5085;SDS011;4715;51.660;7.082;2023-02-15T03:36:15;16.30;;;11.73;;
5085;SDS011;4715;51.660;7.082;2023-02-15T03:38:43;20.27;;;12.70;;
5085;SDS011;4715;51.660;7.082;2023-02-15T03:41:12;17.50;;;11.47;;
5085;SDS011;4715;51.660;7.082;2023-02-15T03:43:40;17.17;;;10.93;;
5085;SDS011;4715;51.660;7.082;2023-02-15T03:46:21;13.03;;;10.50;;
5085;SDS011;4715;51.660;7.082;2023-02-15T03:48:51;12.77;;;9.87;;
5085;SDS011;4715;51.660;7.082;2023-02-15T03:51:16;15.90;;;10.87;;
5085;SDS011;4715;51.660;7.082;2023-02-15T03:53:56;15.27;;;10.60;;
5085;SDS011;4715;51.660;7.082;2023-02-15T03:56:23;18.27;;;10.23;;
5085;SDS011;4715;51.660;7.082;2023-02-15T03:58:48;15.10;;;9.77;;
5085;SDS011;4715;51.660;7.082;2023-02-15T04:01:31;12.87;;;8.70;;
5085;SDS011;4715;51.660;7.082;2023-02-15T04:04:34;12.47;;;9.53;;
5085;SDS011;4715;51.660;7.082;2023-02-15T04:06:57;11.90;;;8.60;;
5085;SDS011;4715;51.660;7.082;2023-02-15T04:09:20;13.83;;;8.83;;
5085;SDS011;4715;51.660;7.082;2023-02-15T04:11:59;15.27;;;9.00;;
5085;SDS011;4715;51.660;7.082;2023-02-15T04:14:21;11.93;;;9.27;;
5085;SDS011;4715;51.660;7.082;2023-02-15T04:16:59;13.10;;;9.10;;
5085;SDS011;4715;51.660;7.082;2023-02-15T04:19:22;14.77;;;10.03;;
5085;SDS011;4715;51.660;7.082;2023-02-15T04:22:02;15.33;;;9.50;;
5085;SDS011;4715;51.660;7.082;2023-02-15T04:24:43;13.50;;;9.30;;
5085;SDS011;4715;51.660;7.082;2023-02-15T04:27:22;12.60;;;8.70;;
5085;SDS011;4715;51.660;7.082;2023-02-15T04:29:44;10.67;;;8.83;;
5085;SDS011;4715;51.660;7.082;2023-02-15T04:32:06;13.37;;;9.87;;
5085;SDS011;4715;51.660;7.082;2023-02-15T04:34:28;11.90;;;8.30;;
5085;SDS011;4715;51.660;7.082;2023-02-15T04:36:50;10.40;;;8.23;;
5085;SDS011;4715;51.660;7.082;2023-02-15T04:39:13;10.97;;;8.27;;
5085;SDS011;4715;51.660;7.082;2023-02-15T04:41:36;9.17;;;8.07;;
5085;SDS011;4715;51.660;7.082;2023-02-15T04:43:57;9.50;;;8.23;;
5085;SDS011;4715;51.660;7.082;2023-02-15T04:46:20;12.03;;;8.33;;
5085;SDS011;4715;51.660;7.082;2023-02-15T04:48:42;12.67;;;7.60;;
5085;SDS011;4715;51.660;7.082;2023-02-15T04:51:05;12.07;;;8.80;;
5085;SDS011;4715;51.660;7.082;2023-02-15T04:53:27;15.00;;;9.83;;
5085;SDS011;4715;51.660;7.082;2023-02-15T04:55:50;14.27;;;8.60;;
5085;SDS011;4715;51.660;7.082;2023-02-15T04:58:12;16.60;;;9.80;;
5085;SDS011;4715;51.660;7.082;2023-02-15T05:00:36;14.70;;;9.50;;
5085;SDS011;4715;51.660;7.082;2023-02-15T05:02:58;13.60;;;9.20;;
5085;SDS011;4715;51.660;7.082;2023-02-15T05:05:20;14.70;;;9.10;;
5085;SDS011;4715;51.660;7.082;2023-02-15T05:07:42;12.20;;;8.50;;
5085;SDS011;4715;51.660;7.082;2023-02-15T05:10:04;9.47;;;8.33;;
5085;SDS011;4715;51.660;7.082;2023-02-15T05:12:28;10.40;;;7.90;;
5085;SDS011;4715;51.660;7.082;2023-02-15T05:14:50;14.27;;;9.10;;
5085;SDS011;4715;51.660;7.082;2023-02-15T05:17:12;10.67;;;8.20;;
5085;SDS011;4715;51.660;7.082;2023-02-15T05:19:34;11.20;;;8.80;;
5085;SDS011;4715;51.660;7.082;2023-02-15T05:21:56;15.90;;;9.50;;
5085;SDS011;4715;51.660;7.082;2023-02-15T05:24:18;13.50;;;8.77;;
5085;SDS011;4715;51.660;7.082;2023-02-15T05:26:57;14.13;;;9.00;;
5085;SDS011;4715;51.660;7.082;2023-02-15T05:29:38;20.27;;;9.87;;
5085;SDS011;4715;51.660;7.082;2023-02-15T05:32:00;16.63;;;9.73;;
5085;SDS011;4715;51.660;7.082;2023-02-15T05:34:24;14.20;;;8.57;;
5085;SDS011;4715;51.660;7.082;2023-02-15T05:36:45;15.40;;;9.20;;
5085;SDS011;4715;51.660;7.082;2023-02-15T05:39:07;17.53;;;11.33;;
5085;SDS011;4715;51.660;7.082;2023-02-15T05:41:29;11.93;;;8.20;;
5085;SDS011;4715;51.660;7.082;2023-02-15T05:44:00;16.27;;;9.40;;
5085;SDS011;4715;51.660;7.082;2023-02-15T05:46:25;14.17;;;9.63;;
5085;SDS011;4715;51.660;7.082;2023-02-15T05:48:47;11.07;;;8.70;;
5085;SDS011;4715;51.660;7.082;2023-02-15T05:51:10;13.03;;;8.67;;
5085;SDS011;4715;51.660;7.082;2023-02-15T05:53:35;18.07;;;8.47;;
5085;SDS011;4715;51.660;7.082;2023-02-15T05:55:58;11.50;;;8.00;;
5085;SDS011;4715;51.660;7.082;2023-02-15T05:58:22;12.70;;;8.37;;
5085;SDS011;4715;51.660;7.082;2023-02-15T06:00:44;10.00;;;8.47;;
5085;SDS011;4715;51.660;7.082;2023-02-15T06:03:07;13.30;;;8.50;;
5085;SDS011;4715;51.660;7.082;2023-02-15T06:05:29;11.87;;;8.63;;
5085;SDS011;4715;51.660;7.082;2023-02-15T06:07:51;9.83;;;7.53;;
5085;SDS011;4715;51.660;7.082;2023-02-15T06:10:13;11.23;;;7.33;;
5085;SDS011;4715;51.660;7.082;2023-02-15T06:12:35;11.47;;;8.40;;
5085;SDS011;4715;51.660;7.082;2023-02-15T06:14:58;11.40;;;7.87;;
5085;SDS011;4715;51.660;7.082;2023-02-15T06:17:20;8.90;;;7.20;;
5085;SDS011;4715;51.660;7.082;2023-02-15T06:19:43;14.03;;;8.67;;
5085;SDS011;4715;51.660;7.082;2023-02-15T06:22:06;12.80;;;8.57;;
5085;SDS011;4715;51.660;7.082;2023-02-15T06:24:28;14.43;;;8.67;;
5085;SDS011;4715;51.660;7.082;2023-02-15T06:26:50;14.20;;;9.00;;
5085;SDS011;4715;51.660;7.082;2023-02-15T06:29:12;12.80;;;8.63;;
5085;SDS011;4715;51.660;7.082;2023-02-15T06:31:34;12.70;;;10.23;;
5085;SDS011;4715;51.660;7.082;2023-02-15T06:33:56;11.67;;;7.50;;
5085;SDS011;4715;51.660;7.082;2023-02-15T06:36:22;13.27;;;8.70;;
5085;SDS011;4715;51.660;7.082;2023-02-15T06:38:44;11.77;;;8.40;;
5085;SDS011;4715;51.660;7.082;2023-02-15T06:41:06;12.07;;;7.07;;
5085;SDS011;4715;51.660;7.082;2023-02-15T06:43:27;14.40;;;8.70;;
5085;SDS011;4715;51.660;7.082;2023-02-15T06:45:49;11.20;;;7.67;;
5085;SDS011;4715;51.660;7.082;2023-02-15T06:48:11;12.73;;;8.10;;
5085;SDS011;4715;51.660;7.082;2023-02-15T06:50:33;13.13;;;8.83;;
5085;SDS011;4715;51.660;7.082;2023-02-15T06:52:57;9.00;;;6.33;;
5085;SDS011;4715;51.660;7.082;2023-02-15T06:55:22;8.63;;;6.57;;
5085;SDS011;4715;51.660;7.082;2023-02-15T06:57:43;14.20;;;8.63;;
5085;SDS011;4715;51.660;7.082;2023-02-15T07:00:06;9.20;;;6.87;;
5085;SDS011;4715;51.660;7.082;2023-02-15T07:02:28;8.80;;;7.03;;
5085;SDS011;4715;51.660;7.082;2023-02-15T07:04:51;11.63;;;7.70;;
5085;SDS011;4715;51.660;7.082;2023-02-15T07:07:13;8.90;;;7.00;;
5085;SDS011;4715;51.660;7.082;2023-02-15T07:09:36;9.97;;;7.07;;
5085;SDS011;4715;51.660;7.082;2023-02-15T07:11:58;7.90;;;7.10;;
5085;SDS011;4715;51.660;7.082;2023-02-15T07:14:37;14.00;;;7.87;;
5085;SDS011;4715;51.660;7.082;2023-02-15T07:17:07;11.57;;;8.03;;
5085;SDS011;4715;51.660;7.082;2023-02-15T07:19:29;11.63;;;8.03;;
5085;SDS011;4715;51.660;7.082;2023-02-15T07:21:51;11.00;;;6.60;;
5085;SDS011;4715;51.660;7.082;2023-02-15T07:24:13;10.23;;;7.13;;
5085;SDS011;4715;51.660;7.082;2023-02-15T07:26:36;14.80;;;8.50;;
5085;SDS011;4715;51.660;7.082;2023-02-15T07:28:58;13.47;;;7.60;;
5085;SDS011;4715;51.660;7.082;2023-02-15T07:31:20;12.30;;;8.20;;
5085;SDS011;4715;51.660;7.082;2023-02-15T07:33:45;9.77;;;6.73;;
5085;SDS011;4715;51.660;7.082;2023-02-15T07:36:07;9.57;;;7.50;;
5085;SDS011;4715;51.660;7.082;2023-02-15T07:38:32;9.10;;;6.67;;
5085;SDS011;4715;51.660;7.082;2023-02-15T07:40:58;8.30;;;7.33;;
5085;SDS011;4715;51.660;7.082;2023-02-15T07:43:23;10.27;;;7.17;;
5085;SDS011;4715;51.660;7.082;2023-02-15T07:45:47;10.67;;;7.77;;
5085;SDS011;4715;51.660;7.082;2023-02-15T07:48:09;8.63;;;6.77;;
5085;SDS011;4715;51.660;7.082;2023-02-15T07:50:31;8.73;;;7.60;;
5085;SDS011;4715;51.660;7.082;2023-02-15T07:52:53;9.67;;;7.97;;
5085;SDS011;4715;51.660;7.082;2023-02-15T07:55:15;10.77;;;7.53;;
5085;SDS011;4715;51.660;7.082;2023-02-15T07:57:41;8.83;;;7.00;;
5085;SDS011;4715;51.660;7.082;2023-02-15T08:00:06;13.73;;;8.93;;
5085;SDS011;4715;51.660;7.082;2023-02-15T08:02:32;13.03;;;8.80;;
5085;SDS011;4715;51.660;7.082;2023-02-15T08:04:56;10.10;;;7.87;;
5085;SDS011;4715;51.660;7.082;2023-02-15T08:07:18;14.57;;;9.23;;
5085;SDS011;4715;51.660;7.082;2023-02-15T08:09:40;12.33;;;8.73;;
5085;SDS011;4715;51.660;7.082;2023-02-15T08:12:02;17.07;;;9.27;;
5085;SDS011;4715;51.660;7.082;2023-02-15T08:14:24;12.57;;;8.90;;
5085;SDS011;4715;51.660;7.082;2023-02-15T08:16:50;16.50;;;10.30;;
5085;SDS011;4715;51.660;7.082;2023-02-15T08:19:15;13.63;;;9.27;;
5085;SDS011;4715;51.660;7.082;2023-02-15T08:21:39;13.27;;;9.90;;
5085;SDS011;4715;51.660;7.082;2023-02-15T08:24:02;13.07;;;9.23;;
5085;SDS011;4715;51.660;7.082;2023-02-15T08:26:25;16.97;;;10.13;;
5085;SDS011;4715;51.660;7.082;2023-02-15T08:28:48;12.60;;;9.10;;
5085;SDS011;4715;51.660;7.082;2023-02-15T08:31:12;10.40;;;8.80;;
5085;SDS011;4715;51.660;7.082;2023-02-15T08:33:36;13.00;;;9.93;;
5085;SDS011;4715;51.660;7.082;2023-02-15T08:36:03;13.07;;;8.60;;
5085;SDS011;4715;51.660;7.082;2023-02-15T08:38:29;11.90;;;8.30;;
5085;SDS011;4715;51.660;7.082;2023-02-15T08:40:52;11.53;;;7.80;;
5085;SDS011;4715;51.660;7.082;2023-02-15T08:43:14;14.83;;;8.43;;
5085;SDS011;4715;51.660;7.082;2023-02-15T08:45:40;12.23;;;7.83;;
5085;SDS011;4715;51.660;7.082;2023-02-15T08:48:03;10.87;;;8.50;;
5085;SDS011;4715;51.660;7.082;2023-02-15T08:50:27;12.60;;;9.10;;
5085;SDS011;4715;51.660;7.082;2023-02-15T08:52:49;11.03;;;7.80;;
5085;SDS011;4715;51.660;7.082;2023-02-15T08:55:14;11.53;;;8.00;;
5085;SDS011;4715;51.660;7.082;2023-02-15T08:57:36;10.87;;;7.40;;
5085;SDS011;4715;51.660;7.082;2023-02-15T09:00:05;12.33;;;8.20;;
5085;SDS011;4715;51.660;7.082;2023-02-15T09:02:44;14.03;;;8.47;;
5085;SDS011;4715;51.660;7.082;2023-02-15T09:05:07;9.67;;;7.27;;
5085;SDS011;4715;51.660;7.082;2023-02-15T09:07:31;9.97;;;7.50;;
5085;SDS011;4715;51.660;7.082;2023-02-15T09:09:52;10.73;;;8.13;;
5085;SDS011;4715;51.660;7.082;2023-02-15T09:12:15;9.23;;;7.30;;
5085;SDS011;4715;51.660;7.082;2023-02-15T09:14:37;8.27;;;6.20;;
5085;SDS011;4715;51.660;7.082;2023-02-15T09:16:58;10.03;;;7.20;;
5085;SDS011;4715;51.660;7.082;2023-02-15T09:19:21;8.20;;;6.67;;
5085;SDS011;4715;51.660;7.082;2023-02-15T09:21:44;9.67;;;6.53;;
5085;SDS011;4715;51.660;7.082;2023-02-15T09:24:08;7.70;;;6.87;;
5085;SDS011;4715;51.660;7.082;2023-02-15T09:26:32;12.27;;;7.90;;
5085;SDS011;4715;51.660;7.082;2023-02-15T09:28:56;8.30;;;7.50;;
5085;SDS011;4715;51.660;7.082;2023-02-15T09:31:21;12.97;;;8.60;;
5085;SDS011;4715;51.660;7.082;2023-02-15T09:33:44;14.27;;;9.87;;
5085;SDS011;4715;51.660;7.082;2023-02-15T09:36:13;21.47;;;12.40;;
5085;SDS011;4715;51.660;7.082;2023-02-15T09:38:37;22.30;;;15.03;;
5085;SDS011;4715;51.660;7.082;2023-02-15T09:41:11;26.20;;;17.10;;
5085;SDS011;4715;51.660;7.082;2023-02-15T09:43:55;25.13;;;14.00;;
5085;SDS011;4715;51.660;7.082;2023-02-15T09:46:35;29.00;;;18.60;;
5085;SDS011;4715;51.660;7.082;2023-02-15T09:49:12;25.87;;;17.97;;
5085;SDS011;4715;51.660;7.082;2023-02-15T09:51:59;28.93;;;16.90;;
5085;SDS011;4715;51.660;7.082;2023-02-15T09:54:52;32.20;;;18.90;;
5085;SDS011;4715;51.660;7.082;2023-02-15T09:57:27;32.00;;;18.33;;
5085;SDS011;4715;51.660;7.082;2023-02-15T10:00:00;36.50;;;21.10;;
5085;SDS011;4715;51.660;7.082;2023-02-15T10:02:30;34.73;;;20.27;;
5085;SDS011;4715;51.660;7.082;2023-02-15T10:05:05;38.73;;;20.60;;
5085;SDS011;4715;51.660;7.082;2023-02-15T10:07:41;38.23;;;20.40;;
5085;SDS011;4715;51.660;7.082;2023-02-15T10:10:17;30.03;;;20.50;;
5085;SDS011;4715;51.660;7.082;2023-02-15T10:12:52;40.43;;;21.70;;
5085;SDS011;4715;51.660;7.082;2023-02-15T10:15:23;33.47;;;18.90;;
5085;SDS011;4715;51.660;7.082;2023-02-15T10:17:56;31.73;;;19.97;;
5085;SDS011;4715;51.660;7.082;2023-02-15T10:20:32;31.43;;;19.17;;
5085;SDS011;4715;51.660;7.082;2023-02-15T10:23:06;34.77;;;20.73;;
5085;SDS011;4715;51.660;7.082;2023-02-15T10:25:40;29.60;;;20.23;;
5085;SDS011;4715;51.660;7.082;2023-02-15T10:28:06;24.67;;;16.70;;
5085;SDS011;4715;51.660;7.082;2023-02-15T10:30:34;24.37;;;16.20;;
5085;SDS011;4715;51.660;7.082;2023-02-15T10:33:03;27.87;;;17.67;;
5085;SDS011;4715;51.660;7.082;2023-02-15T10:35:32;24.30;;;17.90;;
5085;SDS011;4715;51.660;7.082;2023-02-15T10:38:06;25.03;;;16.70;;
5085;SDS011;4715;51.660;7.082;2023-02-15T10:40:40;28.53;;;16.37;;
5085;SDS011;4715;51.660;7.082;2023-02-15T10:43:16;22.90;;;14.53;;
5085;SDS011;4715;51.660;7.082;2023-02-15T10:45:48;20.73;;;14.43;;
5085;SDS011;4715;51.660;7.082;2023-02-15T10:48:21;20.17;;;14.30;;
5085;SDS011;4715;51.660;7.082;2023-02-15T10:50:56;25.23;;;15.80;;
5085;SDS011;4715;51.660;7.082;2023-02-15T10:53:36;26.13;;;15.30;;
5085;SDS011;4715;51.660;7.082;2023-02-15T10:56:17;31.60;;;18.70;;
5085;SDS011;4715;51.660;7.082;2023-02-15T10:58:49;29.40;;;16.67;;
5085;SDS011;4715;51.660;7.082;2023-02-15T11:01:22;26.37;;;16.83;;
5085;SDS011;4715;51.660;7.082;2023-02-15T11:06:42;28.77;;;17.57;;
5085;SDS011;4715;51.660;7.082;2023-02-15T11:09:12;24.90;;;16.33;;
5085;SDS011;4715;51.660;7.082;2023-02-15T11:11:38;26.17;;;16.80;;
5085;SDS011;4715;51.660;7.082;2023-02-15T11:14:12;23.70;;;16.30;;
5085;SDS011;4715;51.660;7.082;2023-02-15T11:16:36;27.30;;;16.67;;
5085;SDS011;4715;51.660;7.082;2023-02-15T11:19:03;28.83;;;15.10;;
5085;SDS011;4715;51.660;7.082;2023-02-15T11:21:30;19.87;;;14.10;;
5085;SDS011;4715;51.660;7.082;2023-02-15T11:23:56;24.67;;;15.50;;
5085;SDS011;4715;51.660;7.082;2023-02-15T11:26:21;16.63;;;11.80;;
5085;SDS011;4715;51.660;7.082;2023-02-15T11:28:51;20.30;;;12.20;;
5085;SDS011;4715;51.660;7.082;2023-02-15T11:31:17;15.63;;;10.90;;
5085;SDS011;4715;51.660;7.082;2023-02-15T11:33:42;20.03;;;12.43;;
5085;SDS011;4715;51.660;7.082;2023-02-15T11:36:08;15.17;;;11.63;;
5085;SDS011;4715;51.660;7.082;2023-02-15T11:38:34;29.00;;;15.47;;
5085;SDS011;4715;51.660;7.082;2023-02-15T11:40:59;20.70;;;13.97;;
5085;SDS011;4715;51.660;7.082;2023-02-15T11:43:26;23.37;;;12.90;;
5085;SDS011;4715;51.660;7.082;2023-02-15T11:45:53;20.97;;;14.57;;
5085;SDS011;4715;51.660;7.082;2023-02-15T11:48:16;23.77;;;16.30;;
5085;SDS011;4715;51.660;7.082;2023-02-15T11:50:39;21.87;;;13.47;;
5085;SDS011;4715;51.660;7.082;2023-02-15T11:53:03;20.00;;;13.30;;
5085;SDS011;4715;51.660;7.082;2023-02-15T11:55:28;25.10;;;14.77;;
5085;SDS011;4715;51.660;7.082;2023-02-15T11:57:52;20.07;;;13.23;;
5085;SDS011;4715;51.660;7.082;2023-02-15T12:00:20;26.53;;;15.43;;
5085;SDS011;4715;51.660;7.082;2023-02-15T12:02:52;23.70;;;14.40;;
5085;SDS011;4715;51.660;7.082;2023-02-15T12:05:17;24.77;;;14.70;;
5085;SDS011;4715;51.660;7.082;2023-02-15T12:07:43;28.83;;;15.73;;
5085;SDS011;4715;51.660;7.082;2023-02-15T12:10:15;18.77;;;13.73;;
5085;SDS011;4715;51.660;7.082;2023-02-15T12:12:40;22.57;;;12.93;;
5085;SDS011;4715;51.660;7.082;2023-02-15T12:15:03;20.43;;;12.70;;
5085;SDS011;4715;51.660;7.082;2023-02-15T12:17:26;17.10;;;10.37;;
5085;SDS011;4715;51.660;7.082;2023-02-15T12:19:50;22.20;;;11.47;;
5085;SDS011;4715;51.660;7.082;2023-02-15T12:22:22;19.73;;;12.77;;
5085;SDS011;4715;51.660;7.082;2023-02-15T12:24:46;17.13;;;11.10;;
5085;SDS011;4715;51.660;7.082;2023-02-15T12:27:13;18.50;;;11.90;;
5085;SDS011;4715;51.660;7.082;2023-02-15T12:29:39;22.20;;;13.40;;
5085;SDS011;4715;51.660;7.082;2023-02-15T12:32:03;19.70;;;10.97;;
5085;SDS011;4715;51.660;7.082;2023-02-15T12:34:26;13.73;;;9.40;;
5085;SDS011;4715;51.660;7.082;2023-02-15T12:36:52;21.07;;;10.47;;
5085;SDS011;4715;51.660;7.082;2023-02-15T12:39:21;16.47;;;10.13;;
5085;SDS011;4715;51.660;7.082;2023-02-15T12:41:46;18.60;;;10.17;;
5085;SDS011;4715;51.660;7.082;2023-02-15T12:44:20;16.73;;;9.73;;
5085;SDS011;4715;51.660;7.082;2023-02-15T12:46:55;15.63;;;10.10;;
5085;SDS011;4715;51.660;7.082;2023-02-15T12:49:19;18.97;;;10.30;;
5085;SDS011;4715;51.660;7.082;2023-02-15T12:51:45;16.27;;;10.27;;
5085;SDS011;4715;51.660;7.082;2023-02-15T12:54:15;15.93;;;10.43;;
5085;SDS011;4715;51.660;7.082;2023-02-15T12:56:54;17.27;;;8.90;;
5085;SDS011;4715;51.660;7.082;2023-02-15T12:59:17;13.90;;;10.37;;
5085;SDS011;4715;51.660;7.082;2023-02-15T13:01:41;16.27;;;10.50;;
5085;SDS011;4715;51.660;7.082;2023-02-15T13:04:06;17.27;;;9.77;;
5085;SDS011;4715;51.660;7.082;2023-02-15T13:06:45;11.90;;;8.50;;
5085;SDS011;4715;51.660;7.082;2023-02-15T13:09:13;15.10;;;10.10;;
5085;SDS011;4715;51.660;7.082;2023-02-15T13:11:36;15.00;;;9.07;;
5085;SDS011;4715;51.660;7.082;2023-02-15T13:14:02;15.90;;;9.10;;
5085;SDS011;4715;51.660;7.082;2023-02-15T13:16:27;16.57;;;10.03;;
5085;SDS011;4715;51.660;7.082;2023-02-15T13:18:52;16.93;;;9.70;;
5085;SDS011;4715;51.660;7.082;2023-02-15T13:21:15;17.50;;;10.27;;
5085;SDS011;4715;51.660;7.082;2023-02-15T13:23:41;16.63;;;9.10;;
5085;SDS011;4715;51.660;7.082;2023-02-15T13:26:08;16.53;;;10.00;;
5085;SDS011;4715;51.660;7.082;2023-02-15T13:28:37;17.93;;;11.63;;
5085;SDS011;4715;51.660;7.082;2023-02-15T13:31:07;16.33;;;9.77;;
5085;SDS011;4715;51.660;7.082;2023-02-15T13:33:34;20.40;;;11.80;;
5085;SDS011;4715;51.660;7.082;2023-02-15T13:36:02;16.30;;;10.73;;
5085;SDS011;4715;51.660;7.082;2023-02-15T13:38:41;17.13;;;10.40;;
5085;SDS011;4715;51.660;7.082;2023-02-15T13:41:09;20.90;;;9.93;;
5085;SDS011;4715;51.660;7.082;2023-02-15T13:43:38;18.03;;;10.77;;
5085;SDS011;4715;51.660;7.082;2023-02-15T13:46:14;18.53;;;11.13;;
5085;SDS011;4715;51.660;7.082;2023-02-15T13:48:47;18.93;;;11.90;;
5085;SDS011;4715;51.660;7.082;2023-02-15T13:51:24;20.10;;;10.13;;
5085;SDS011;4715;51.660;7.082;2023-02-15T13:53:59;20.10;;;10.90;;
5085;SDS011;4715;51.660;7.082;2023-02-15T13:56:34;14.60;;;10.40;;
5085;SDS011;4715;51.660;7.082;2023-02-15T13:59:14;14.60;;;8.30;;
5085;SDS011;4715;51.660;7.082;2023-02-15T14:01:48;11.27;;;7.50;;
5085;SDS011;4715;51.660;7.082;2023-02-15T14:04:20;11.43;;;7.73;;
5085;SDS011;4715;51.660;7.082;2023-02-15T14:07:03;13.07;;;8.47;;
5085;SDS011;4715;51.660;7.082;2023-02-15T14:09:40;14.50;;;9.50;;
5085;SDS011;4715;51.660;7.082;2023-02-15T14:12:15;18.10;;;8.70;;
5085;SDS011;4715;51.660;7.082;2023-02-15T14:15:15;12.37;;;8.40;;
5085;SDS011;4715;51.660;7.082;2023-02-15T14:17:52;15.83;;;9.93;;
5085;SDS011;4715;51.660;7.082;2023-02-15T14:20:24;14.83;;;8.33;;
5085;SDS011;4715;51.660;7.082;2023-02-15T14:22:59;16.37;;;9.30;;
5085;SDS011;4715;51.660;7.082;2023-02-15T14:25:31;12.40;;;8.17;;
5085;SDS011;4715;51.660;7.082;2023-02-15T14:28:01;15.70;;;8.73;;
5085;SDS011;4715;51.660;7.082;2023-02-15T14:30:30;13.80;;;9.27;;
5085;SDS011;4715;51.660;7.082;2023-02-15T14:32:59;13.87;;;8.67;;
5085;SDS011;4715;51.660;7.082;2023-02-15T14:35:26;16.10;;;9.27;;
5085;SDS011;4715;51.660;7.082;2023-02-15T14:37:50;21.20;;;10.73;;
5085;SDS011;4715;51.660;7.082;2023-02-15T14:40:26;21.67;;;10.13;;
5085;SDS011;4715;51.660;7.082;2023-02-15T14:43:15;22.97;;;12.20;;
5085;SDS011;4715;51.660;7.082;2023-02-15T14:45:47;18.43;;;10.83;;
5085;SDS011;4715;51.660;7.082;2023-02-15T14:48:14;20.13;;;10.93;;
5085;SDS011;4715;51.660;7.082;2023-02-15T14:50:43;19.30;;;10.50;;
5085;SDS011;4715;51.660;7.082;2023-02-15T14:53:14;15.73;;;10.10;;
5085;SDS011;4715;51.660;7.082;2023-02-15T14:55:37;16.63;;;10.40;;
5085;SDS011;4715;51.660;7.082;2023-02-15T14:57:59;17.90;;;10.63;;
5085;SDS011;4715;51.660;7.082;2023-02-15T15:00:31;17.60;;;10.10;;
5085;SDS011;4715;51.660;7.082;2023-02-15T15:02:58;15.20;;;9.73;;